cliquez pour ajouter le site Runraid à vos favoris  English version (google)  Retour à l'accueil Ecrire à l'auteur du site Runraid : Michel Jourdan



Les prochaines courses


Les derniers résultats

cliquez pour visualiser la page complète relatant la chronologie des éruptions du Piton de la Fournaise
éruptions Piton de la Fournaise


Ile de La Réunion

 Diagonale des Fous 

Ecrire au créateur du site : Michel Jourdan
Contact


2019-08-18 - Foulées solidaires de la Possession

Pour consulter le palmarès d'un coureur, un clic sur son nom !

Vous avez des remarques, corrections, ... sur ces résultats , un clic sur --> pour me transmettre toute information concernant les classements


Foulées solidaires de la Possession - 2019 : classement des 89 finishers
Place Nom Temps Cat. Club Sexe Clt/cat.
Place Nom Temps Cat. Club Sexe Clt/cat.
1 BARLIEU Ronan 00:34:39 SEM ACP M 27
2 DAREL LUCIANO 00:36:21 SEM M 34
3 BELLE GENO 00:36:25 SEM M 22
4 LABICHE SIMON 00:36:38 V1M M 1 V1M 21
5 DUGAIN FABIEN 00:36:55 SEM M 4 SEM 76
6 Hoarau Louis 00:37:11 CAM M 1 CAM 94
7 TALIMBOLA BENOIT 00:37:33 V2M ACP M 1 V2M 35
8 FLORUS JEAN PATRICK 00:37:33 V2M ACP M 2 V2M 36
9 DUBIN BENOIT 00:38:25 V1M ACSP M 2 V1M 41
10 LESPERANCE KURT MARVYN 00:39:04 CAM M 2 CAM 44
11 HOARAU GUILLAUME 00:39:13 SEM M 5 SEM 12
12 TRIHAN MALO 00:39:24 V2M ACSP M 3 V2M 14
13 Pobrezo Henri Claude 00:39:54 SEM M 6 SEM 92
14 LESQUELIN YOHAN 00:41:10 SEM M 7 SEM 72
15 SCODAVOLPE FABRICE 00:41:12 V1M M 3 V1M 68
16 PAYET PATRICK 00:41:14 V1M M 4 V1M 15
17 Lescureux Tom 00:41:36 JUM M 1 JUM 87
18 SAUTRON PIERRICK 00:41:36 SEM M 8 SEM 24
19 LARUE MAXWELL 00:42:21 V1M M 5 V1M 46
20 KONDOKI JEAN CLAUDE 00:42:50 V2M ACP M 4 V2M 37
21 GUYOT DANIEL 00:43:01 V3M M 1 V3M 69
22 BONNE DEVIS JOSEPH 00:43:07 SEM M 9 SEM 43
23 BONNE ELVINE 00:43:07 SEM M 10 SEM 26
24 Hubert Robin 00:43:09 ESM M 1 ESM 78
25 Lescureux Cyril 00:44:52 V1M M 6 V1M 86
26 GUICHARD GILLES 00:47:16 V3M M 2 V3M 7
27 Dejean Julien 00:47:25 CAM M 3 CAM 100
28 Euphrasie Roman 00:48:29 CAM M 4 CAM 89
29 MAILLOT SERGES 00:48:34 V3M M 3 V3M 17
30 JOUANEAU SHANAH 00:49:28 CAF F 1ere F 30
31 Le Tennier Sylvie 00:49:42 V2F F 1 V2F 98
32 JOSION THOMAS 00:49:56 V2M M 5 V2M 59
33 CAVANE JEAN FRED 00:49:56 V1M M 7 V1M 58
34 MAILLOT KLERBER 00:49:56 V2M M 6 V2M 62
35 LEGER THIERRY 00:49:56 V2M M 7 V2M 60
36 LEPINAY CLAUDE 00:49:57 V2M M 8 V2M 57
37 SAHRAOUI KALIM 00:49:57 SEM M 11 SEM 63
38 LARRIEU BENJAMIN 00:49:57 SEM M 12 SEM 66
39 SIMME JEAN PRISCA ELSON 00:50:29 SEM CASM M 13 SEM 16
40 SAUTRON JEAN RENe 00:50:37 V1M M 8 V1M 32
41 Hubert Jeremy 00:51:04 ESM M 2 ESM 77
42 BRUNIQUET ANTHONY 00:51:06 ESM M 3 ESM 13
43 GEREONE Irene 00:51:21 V2F F 2 V2F 20
44 TOUSSAINT MIREILLE 00:51:30 V1F F 1 V1F 75
45 VAR THIERRY 00:51:30 V1M M 9 V1M 67
46 Banor Jean Didier 00:51:33 V1M M 10 V1M 93
47 BEGUE EDDY 00:51:34 V2M M 9 V2M 71
48 Oulia Mimose 00:51:51 V2F F 3 V2F 95
49 GRUCHET KELLY 00:53:54 V1F F 2 V1F 19
50 LON MON POY MARINELLE 00:54:49 V1F F 3 V1F 18
51 Benitta Michel 00:55:28 V3M M 4 V3M 84
52 Hurel Joel 00:55:38 V2M M 10 V2M 96
53 ERNESTA FLORISE 00:56:03 V2F F 4 V2F 28
54 Aujis Ludovic 00:56:08 V1M M 11 V1M 101
55 Vilpont Didier 00:56:44 SEM M 14 SEM 97
56 Lescureyx Gabin 00:56:58 CAM M 5 CAM 88
57 AH SANE EDDY 00:57:01 V1M M 12 V1M 74
58 CARO CYNTHIA 00:57:25 JUF F 1 JUF 70
59 Dejean Frederic 00:57:48 V1M M 13 V1M 99
60 MELANIE JOEL NICOLAS 00:57:52 V3M M 5 V3M 42
61 FRANCIA EMMANUELLE 00:58:22 V1F F 4 V1F 49
62 OUZAN THIERRY 00:58:22 V2M M 11 V2M 61
63 SOUBLAYROLLES NICOLAS 00:58:23 SEM M 15 SEM 55
64 RIVIERE DIDIER 00:58:23 V2M M 12 V2M 50
65 AH HY LUCIANO 00:58:23 V1M M 14 V1M 54
66 PRONOST PHILIPPE 00:58:23 V2M M 13 V2M 64
67 DOUCERIN JEAN MICHEL 00:58:23 V2M M 14 V2M 65
68 CHARLES ERICA 00:59:44 SEF F 1 SEF 31
69 HEURTIN AMeDeE PHILIPPE 00:59:44 V3M M 6 V3M 40
70 CADET SONIA 00:59:56 V3F F 1 V3F 3
71 Balbine Romane 01:01:08 ESF F 1 ESF 79
72 NOUAILLE DEGORCE JEAN 01:01:10 SEM M 16 SEM 9
73 DELEDICQ ESPARON SUZELLE 01:03:14 V3F F 2 V3F 10
74 HARRAY MAGGY JEANNY 01:05:01 V2F F 5 V2F 45
75 Boulanouar Jerome 01:05:20 SEM M 17 SEM 81
76 MERCHER MONIQUE 01:06:32 V2F F 6 V2F 51
77 HOAREAU CORINE 01:06:33 V1F F 5 V1F 53
78 CASSARO FReDeRIC 01:06:33 V1M M 15 V1M 48
79 MOLINIER MAXENCE 01:06:33 SEM M 18 SEM 52
80 CASSARO ELODIE 01:06:33 V1F F 6 V1F 47
81 BEAUVAL FRANcOISE 01:06:33 V2F F 7 V2F 56
82 Ahamada Sylvia 01:07:07 V2F F 8 V2F 85
83 Bienaime Marie Anne 01:10:05 V2F F 9 V2F 82
84 LUTTENBACHER VIRGINIE 01:13:10 SEF F 2 SEF 8
85 LAURINCE CORINE 01:13:12 V1F F 7 V1F 11
86 Mercier Emmanuel 01:18:34 M M 1 M 83
87 Beaute Astrid 01:26:45 V2F F 10 V2F 91
88 Georget Marie Therese 01:26:45 V5F F 1 V5F 90
89 CHOUCAIR YOUSSEF 01:30:18 V3M RCSD M 7 V3M 73


ReferencementCe site est listé dans la catégorie Sport : Sports extrêmes Dictionnaire
| Accueil | La Réunion  Vue du ciel | Météo | Cyclones | Volcan | Cirques de Mafate , Cilaos , Salazie | Photos Randonnées | Randonnées Réunion: Randos Espiègle , Courses montagne | Diagonale des Fous |  Marathon des Sables | Voyages Les stats du site | Fonds écran | Plan du site | Blog de runraid | Galerie photos Sport Réunion |